sensor_id;sensor_type;location;lat;lon;timestamp;temperature;humidity
40638;DHT22;26336;44.696;10.622;2023-08-24T00:01:53;29.30;86.50
40638;DHT22;26336;44.696;10.622;2023-08-24T00:05:00;29.00;86.60
40638;DHT22;26336;44.696;10.622;2023-08-24T00:08:05;29.00;86.50
40638;DHT22;26336;44.696;10.622;2023-08-24T00:11:14;28.90;86.60
40638;DHT22;26336;44.696;10.622;2023-08-24T00:14:22;28.80;86.70
40638;DHT22;26336;44.696;10.622;2023-08-24T00:17:27;28.80;86.60
40638;DHT22;26336;44.696;10.622;2023-08-24T00:20:32;28.90;86.70
40638;DHT22;26336;44.696;10.622;2023-08-24T00:23:39;29.00;87.00
40638;DHT22;26336;44.696;10.622;2023-08-24T00:26:44;29.00;86.80
40638;DHT22;26336;44.696;10.622;2023-08-24T00:29:50;29.00;86.80
40638;DHT22;26336;44.696;10.622;2023-08-24T00:32:56;29.00;87.10
40638;DHT22;26336;44.696;10.622;2023-08-24T00:36:02;29.00;86.50
40638;DHT22;26336;44.696;10.622;2023-08-24T00:39:06;29.00;87.00
40638;DHT22;26336;44.696;10.622;2023-08-24T00:42:10;29.00;87.00
40638;DHT22;26336;44.696;10.622;2023-08-24T00:45:19;29.10;87.00
40638;DHT22;26336;44.696;10.622;2023-08-24T00:48:23;29.10;87.10
40638;DHT22;26336;44.696;10.622;2023-08-24T00:51:32;29.10;86.90
40638;DHT22;26336;44.696;10.622;2023-08-24T00:54:38;29.10;86.90
40638;DHT22;26336;44.696;10.622;2023-08-24T00:57:43;29.20;87.20
40638;DHT22;26336;44.696;10.622;2023-08-24T01:00:58;29.10;87.40
40638;DHT22;26336;44.696;10.622;2023-08-24T01:04:02;29.10;87.40
40638;DHT22;26336;44.696;10.622;2023-08-24T01:07:06;29.00;87.00
40638;DHT22;26336;44.696;10.622;2023-08-24T01:10:12;29.00;86.80
40638;DHT22;26336;44.696;10.622;2023-08-24T01:13:24;29.10;86.80
40638;DHT22;26336;44.696;10.622;2023-08-24T01:16:33;29.10;87.00
40638;DHT22;26336;44.696;10.622;2023-08-24T01:19:44;29.00;87.10
40638;DHT22;26336;44.696;10.622;2023-08-24T01:23:13;29.00;87.40
40638;DHT22;26336;44.696;10.622;2023-08-24T01:26:22;29.00;87.50
40638;DHT22;26336;44.696;10.622;2023-08-24T01:29:27;29.00;87.40
40638;DHT22;26336;44.696;10.622;2023-08-24T01:32:32;28.90;88.60
40638;DHT22;26336;44.696;10.622;2023-08-24T01:35:36;28.80;87.70
40638;DHT22;26336;44.696;10.622;2023-08-24T01:38:41;28.80;87.60
40638;DHT22;26336;44.696;10.622;2023-08-24T01:41:50;28.80;87.60
40638;DHT22;26336;44.696;10.622;2023-08-24T01:44:57;28.70;87.70
40638;DHT22;26336;44.696;10.622;2023-08-24T01:48:04;28.70;88.00
40638;DHT22;26336;44.696;10.622;2023-08-24T01:51:09;28.70;88.00
40638;DHT22;26336;44.696;10.622;2023-08-24T01:54:14;28.70;88.20
40638;DHT22;26336;44.696;10.622;2023-08-24T01:57:18;28.70;88.40
40638;DHT22;26336;44.696;10.622;2023-08-24T02:00:22;28.70;88.70
40638;DHT22;26336;44.696;10.622;2023-08-24T02:03:26;28.60;88.70
40638;DHT22;26336;44.696;10.622;2023-08-24T02:06:31;28.50;89.00
40638;DHT22;26336;44.696;10.622;2023-08-24T02:09:35;28.50;89.20
40638;DHT22;26336;44.696;10.622;2023-08-24T02:12:39;28.60;89.30
40638;DHT22;26336;44.696;10.622;2023-08-24T02:15:44;28.60;89.60
40638;DHT22;26336;44.696;10.622;2023-08-24T02:18:47;28.50;89.40
40638;DHT22;26336;44.696;10.622;2023-08-24T02:21:51;28.50;89.50
40638;DHT22;26336;44.696;10.622;2023-08-24T02:24:55;28.50;89.40
40638;DHT22;26336;44.696;10.622;2023-08-24T02:27:59;28.40;89.50
40638;DHT22;26336;44.696;10.622;2023-08-24T02:31:04;28.40;89.40
40638;DHT22;26336;44.696;10.622;2023-08-24T02:34:09;28.40;89.40
40638;DHT22;26336;44.696;10.622;2023-08-24T02:37:13;28.30;89.50
40638;DHT22;26336;44.696;10.622;2023-08-24T02:40:19;28.30;89.40
40638;DHT22;26336;44.696;10.622;2023-08-24T02:43:23;28.30;90.00
40638;DHT22;26336;44.696;10.622;2023-08-24T02:46:28;28.20;90.00
40638;DHT22;26336;44.696;10.622;2023-08-24T02:49:31;28.10;90.10
40638;DHT22;26336;44.696;10.622;2023-08-24T02:52:35;28.10;90.20
40638;DHT22;26336;44.696;10.622;2023-08-24T02:55:40;28.20;90.20
40638;DHT22;26336;44.696;10.622;2023-08-24T02:58:44;28.10;90.20
40638;DHT22;26336;44.696;10.622;2023-08-24T03:01:48;28.10;90.30
40638;DHT22;26336;44.696;10.622;2023-08-24T03:04:52;28.10;90.40
40638;DHT22;26336;44.696;10.622;2023-08-24T03:07:56;28.10;90.50
40638;DHT22;26336;44.696;10.622;2023-08-24T03:11:00;28.10;90.50
40638;DHT22;26336;44.696;10.622;2023-08-24T03:14:05;28.10;90.50
40638;DHT22;26336;44.696;10.622;2023-08-24T03:17:09;28.00;90.50
40638;DHT22;26336;44.696;10.622;2023-08-24T03:20:12;28.00;90.60
40638;DHT22;26336;44.696;10.622;2023-08-24T03:23:18;27.90;90.60
40638;DHT22;26336;44.696;10.622;2023-08-24T03:26:22;27.90;90.60
40638;DHT22;26336;44.696;10.622;2023-08-24T03:29:27;27.90;90.70
40638;DHT22;26336;44.696;10.622;2023-08-24T03:32:31;27.90;90.70
40638;DHT22;26336;44.696;10.622;2023-08-24T03:35:35;27.80;90.70
40638;DHT22;26336;44.696;10.622;2023-08-24T03:38:40;27.80;90.90
40638;DHT22;26336;44.696;10.622;2023-08-24T03:41:44;27.70;91.00
40638;DHT22;26336;44.696;10.622;2023-08-24T03:44:48;27.50;91.10
40638;DHT22;26336;44.696;10.622;2023-08-24T03:47:52;27.40;91.20
40638;DHT22;26336;44.696;10.622;2023-08-24T03:50:57;27.30;91.30
40638;DHT22;26336;44.696;10.622;2023-08-24T03:54:01;27.30;91.50
40638;DHT22;26336;44.696;10.622;2023-08-24T03:57:07;27.40;91.40
40638;DHT22;26336;44.696;10.622;2023-08-24T04:00:13;27.40;91.30
40638;DHT22;26336;44.696;10.622;2023-08-24T04:03:18;27.50;91.30
40638;DHT22;26336;44.696;10.622;2023-08-24T04:06:22;27.40;91.30
40638;DHT22;26336;44.696;10.622;2023-08-24T04:09:27;27.40;91.60
40638;DHT22;26336;44.696;10.622;2023-08-24T04:12:32;27.50;91.40
40638;DHT22;26336;44.696;10.622;2023-08-24T04:15:35;27.50;91.40
40638;DHT22;26336;44.696;10.622;2023-08-24T04:18:39;27.50;91.50
40638;DHT22;26336;44.696;10.622;2023-08-24T04:21:44;27.40;91.60
40638;DHT22;26336;44.696;10.622;2023-08-24T04:24:48;27.30;91.60
40638;DHT22;26336;44.696;10.622;2023-08-24T04:27:52;27.40;91.70
40638;DHT22;26336;44.696;10.622;2023-08-24T04:30:57;27.40;91.90
40638;DHT22;26336;44.696;10.622;2023-08-24T04:34:01;27.30;91.90
40638;DHT22;26336;44.696;10.622;2023-08-24T04:37:06;27.30;92.00
40638;DHT22;26336;44.696;10.622;2023-08-24T04:40:11;27.20;91.90
40638;DHT22;26336;44.696;10.622;2023-08-24T04:43:17;27.20;92.00
40638;DHT22;26336;44.696;10.622;2023-08-24T04:46:21;27.20;92.00
40638;DHT22;26336;44.696;10.622;2023-08-24T04:49:25;27.20;92.10
40638;DHT22;26336;44.696;10.622;2023-08-24T04:52:29;27.20;92.10
40638;DHT22;26336;44.696;10.622;2023-08-24T04:55:33;27.20;91.80
40638;DHT22;26336;44.696;10.622;2023-08-24T04:58:37;27.10;91.70
40638;DHT22;26336;44.696;10.622;2023-08-24T05:01:41;27.10;91.60
40638;DHT22;26336;44.696;10.622;2023-08-24T05:04:45;27.00;91.60
40638;DHT22;26336;44.696;10.622;2023-08-24T05:07:57;27.00;91.60
40638;DHT22;26336;44.696;10.622;2023-08-24T05:11:13;27.00;91.70
40638;DHT22;26336;44.696;10.622;2023-08-24T05:14:18;26.80;91.70
40638;DHT22;26336;44.696;10.622;2023-08-24T05:17:23;26.70;91.80
40638;DHT22;26336;44.696;10.622;2023-08-24T05:20:28;26.70;91.80
40638;DHT22;26336;44.696;10.622;2023-08-24T05:23:33;26.70;91.70
40638;DHT22;26336;44.696;10.622;2023-08-24T05:26:37;26.80;91.70
40638;DHT22;26336;44.696;10.622;2023-08-24T05:29:42;26.80;91.70
40638;DHT22;26336;44.696;10.622;2023-08-24T05:32:47;26.90;91.70
40638;DHT22;26336;44.696;10.622;2023-08-24T05:35:51;26.90;91.70
40638;DHT22;26336;44.696;10.622;2023-08-24T05:38:56;26.90;91.80
40638;DHT22;26336;44.696;10.622;2023-08-24T05:42:01;26.90;91.70
40638;DHT22;26336;44.696;10.622;2023-08-24T05:45:06;26.90;91.70
40638;DHT22;26336;44.696;10.622;2023-08-24T05:48:19;26.90;91.80
40638;DHT22;26336;44.696;10.622;2023-08-24T05:51:24;26.90;91.80
40638;DHT22;26336;44.696;10.622;2023-08-24T05:54:29;26.80;92.00
40638;DHT22;26336;44.696;10.622;2023-08-24T05:57:58;26.90;91.90
40638;DHT22;26336;44.696;10.622;2023-08-24T06:01:21;27.00;91.90
40638;DHT22;26336;44.696;10.622;2023-08-24T06:04:31;27.00;91.90
40638;DHT22;26336;44.696;10.622;2023-08-24T06:07:35;27.10;92.00
40638;DHT22;26336;44.696;10.622;2023-08-24T06:10:40;27.10;92.20
40638;DHT22;26336;44.696;10.622;2023-08-24T06:13:45;27.20;92.30
40638;DHT22;26336;44.696;10.622;2023-08-24T06:16:49;27.20;92.00
40638;DHT22;26336;44.696;10.622;2023-08-24T06:19:53;27.20;91.90
40638;DHT22;26336;44.696;10.622;2023-08-24T06:22:57;27.30;92.20
40638;DHT22;26336;44.696;10.622;2023-08-24T06:26:01;27.40;92.30
40638;DHT22;26336;44.696;10.622;2023-08-24T06:29:06;27.30;91.60
40638;DHT22;26336;44.696;10.622;2023-08-24T06:32:10;27.40;91.40
40638;DHT22;26336;44.696;10.622;2023-08-24T06:35:14;27.50;91.20
40638;DHT22;26336;44.696;10.622;2023-08-24T06:38:21;27.60;91.10
40638;DHT22;26336;44.696;10.622;2023-08-24T06:41:25;27.60;90.90
40638;DHT22;26336;44.696;10.622;2023-08-24T06:44:30;27.60;90.90
40638;DHT22;26336;44.696;10.622;2023-08-24T06:47:34;27.60;90.70
40638;DHT22;26336;44.696;10.622;2023-08-24T06:50:38;27.70;90.40
40638;DHT22;26336;44.696;10.622;2023-08-24T06:53:45;27.70;90.30
40638;DHT22;26336;44.696;10.622;2023-08-24T06:57:41;27.80;90.40
40638;DHT22;26336;44.696;10.622;2023-08-24T07:00:45;27.80;90.40
40638;DHT22;26336;44.696;10.622;2023-08-24T07:03:53;27.90;90.50
40638;DHT22;26336;44.696;10.622;2023-08-24T07:06:59;27.90;90.40
40638;DHT22;26336;44.696;10.622;2023-08-24T07:10:05;27.90;90.40
40638;DHT22;26336;44.696;10.622;2023-08-24T07:13:10;28.00;90.40
40638;DHT22;26336;44.696;10.622;2023-08-24T07:16:15;28.00;90.20
40638;DHT22;26336;44.696;10.622;2023-08-24T07:19:23;28.10;90.20
40638;DHT22;26336;44.696;10.622;2023-08-24T07:22:28;28.10;90.20
40638;DHT22;26336;44.696;10.622;2023-08-24T07:25:32;28.20;90.20
40638;DHT22;26336;44.696;10.622;2023-08-24T07:28:37;28.20;90.30
40638;DHT22;26336;44.696;10.622;2023-08-24T07:31:41;28.20;90.50
40638;DHT22;26336;44.696;10.622;2023-08-24T07:34:47;28.30;90.30
40638;DHT22;26336;44.696;10.622;2023-08-24T07:37:52;28.30;90.30
40638;DHT22;26336;44.696;10.622;2023-08-24T07:40:57;28.40;90.50
40638;DHT22;26336;44.696;10.622;2023-08-24T07:44:02;28.40;90.50
40638;DHT22;26336;44.696;10.622;2023-08-24T07:47:06;28.40;90.60
40638;DHT22;26336;44.696;10.622;2023-08-24T07:50:11;28.50;90.80
40638;DHT22;26336;44.696;10.622;2023-08-24T07:53:16;28.50;90.90
40638;DHT22;26336;44.696;10.622;2023-08-24T07:56:19;28.60;90.90
40638;DHT22;26336;44.696;10.622;2023-08-24T07:59:27;28.60;90.50
40638;DHT22;26336;44.696;10.622;2023-08-24T08:02:34;28.70;90.80
40638;DHT22;26336;44.696;10.622;2023-08-24T08:05:40;28.70;91.00
40638;DHT22;26336;44.696;10.622;2023-08-24T08:08:44;28.80;91.30
40638;DHT22;26336;44.696;10.622;2023-08-24T08:11:50;28.80;91.20
40638;DHT22;26336;44.696;10.622;2023-08-24T08:14:56;28.80;90.80
40638;DHT22;26336;44.696;10.622;2023-08-24T08:18:00;28.90;91.20
40638;DHT22;26336;44.696;10.622;2023-08-24T08:21:16;29.00;91.00
40638;DHT22;26336;44.696;10.622;2023-08-24T08:24:27;29.00;90.80
40638;DHT22;26336;44.696;10.622;2023-08-24T08:27:34;29.10;90.90
40638;DHT22;26336;44.696;10.622;2023-08-24T08:30:39;29.10;90.90
40638;DHT22;26336;44.696;10.622;2023-08-24T08:33:43;29.20;90.50
40638;DHT22;26336;44.696;10.622;2023-08-24T08:36:47;29.30;90.30
40638;DHT22;26336;44.696;10.622;2023-08-24T08:39:52;29.30;90.10
40638;DHT22;26336;44.696;10.622;2023-08-24T08:42:57;29.40;90.00
40638;DHT22;26336;44.696;10.622;2023-08-24T08:46:01;29.50;89.60
40638;DHT22;26336;44.696;10.622;2023-08-24T08:49:07;29.60;89.70
40638;DHT22;26336;44.696;10.622;2023-08-24T08:52:12;29.70;89.30
40638;DHT22;26336;44.696;10.622;2023-08-24T08:55:16;29.70;89.30
40638;DHT22;26336;44.696;10.622;2023-08-24T08:58:20;29.90;88.50
40638;DHT22;26336;44.696;10.622;2023-08-24T09:01:25;30.00;87.50
40638;DHT22;26336;44.696;10.622;2023-08-24T09:04:31;30.10;88.10
40638;DHT22;26336;44.696;10.622;2023-08-24T09:07:35;30.20;87.30
40638;DHT22;26336;44.696;10.622;2023-08-24T09:10:40;30.30;88.00
40638;DHT22;26336;44.696;10.622;2023-08-24T09:13:47;30.30;87.60
40638;DHT22;26336;44.696;10.622;2023-08-24T09:16:51;30.40;85.80
40638;DHT22;26336;44.696;10.622;2023-08-24T09:19:58;30.50;84.30
40638;DHT22;26336;44.696;10.622;2023-08-24T09:23:02;30.60;85.40
40638;DHT22;26336;44.696;10.622;2023-08-24T09:26:06;30.60;82.30
40638;DHT22;26336;44.696;10.622;2023-08-24T09:29:12;30.80;81.80
40638;DHT22;26336;44.696;10.622;2023-08-24T09:32:24;30.80;82.30
40638;DHT22;26336;44.696;10.622;2023-08-24T09:35:28;31.00;82.40
40638;DHT22;26336;44.696;10.622;2023-08-24T09:38:33;31.10;83.80
40638;DHT22;26336;44.696;10.622;2023-08-24T09:41:46;31.10;81.70
40638;DHT22;26336;44.696;10.622;2023-08-24T09:44:51;31.30;81.30
40638;DHT22;26336;44.696;10.622;2023-08-24T09:47:55;31.60;78.30
40638;DHT22;26336;44.696;10.622;2023-08-24T09:51:03;31.60;77.30
40638;DHT22;26336;44.696;10.622;2023-08-24T09:54:09;31.70;76.70
40638;DHT22;26336;44.696;10.622;2023-08-24T09:57:14;31.80;77.90
40638;DHT22;26336;44.696;10.622;2023-08-24T10:00:19;31.80;76.30
40638;DHT22;26336;44.696;10.622;2023-08-24T10:03:27;32.00;77.20
40638;DHT22;26336;44.696;10.622;2023-08-24T10:06:32;32.10;77.30
40638;DHT22;26336;44.696;10.622;2023-08-24T10:09:53;32.10;75.10
40638;DHT22;26336;44.696;10.622;2023-08-24T10:13:08;32.10;77.60
40638;DHT22;26336;44.696;10.622;2023-08-24T10:16:18;32.20;74.60
40638;DHT22;26336;44.696;10.622;2023-08-24T10:19:29;32.30;73.90
40638;DHT22;26336;44.696;10.622;2023-08-24T10:22:35;32.30;71.10
40638;DHT22;26336;44.696;10.622;2023-08-24T10:25:40;32.30;71.80
40638;DHT22;26336;44.696;10.622;2023-08-24T10:28:46;32.30;73.20
40638;DHT22;26336;44.696;10.622;2023-08-24T10:31:53;32.50;72.60
40638;DHT22;26336;44.696;10.622;2023-08-24T10:34:58;32.50;73.10
40638;DHT22;26336;44.696;10.622;2023-08-24T10:38:02;32.70;71.40
40638;DHT22;26336;44.696;10.622;2023-08-24T10:41:07;32.80;72.00
40638;DHT22;26336;44.696;10.622;2023-08-24T10:44:20;32.80;72.70
40638;DHT22;26336;44.696;10.622;2023-08-24T10:47:25;32.80;73.50
40638;DHT22;26336;44.696;10.622;2023-08-24T10:50:35;32.80;75.00
40638;DHT22;26336;44.696;10.622;2023-08-24T10:53:46;32.70;75.70
40638;DHT22;26336;44.696;10.622;2023-08-24T10:56:54;32.70;75.60
40638;DHT22;26336;44.696;10.622;2023-08-24T11:03:11;32.70;75.00
40638;DHT22;26336;44.696;10.622;2023-08-24T11:06:22;32.80;75.10
40638;DHT22;26336;44.696;10.622;2023-08-24T11:09:45;32.90;72.20
40638;DHT22;26336;44.696;10.622;2023-08-24T11:13:12;32.90;74.30
40638;DHT22;26336;44.696;10.622;2023-08-24T11:16:39;32.80;72.90
40638;DHT22;26336;44.696;10.622;2023-08-24T11:19:53;32.80;69.50
40638;DHT22;26336;44.696;10.622;2023-08-24T11:23:01;33.00;71.40
40638;DHT22;26336;44.696;10.622;2023-08-24T11:26:05;33.00;70.00
40638;DHT22;26336;44.696;10.622;2023-08-24T11:29:10;33.00;69.80
40638;DHT22;26336;44.696;10.622;2023-08-24T11:32:15;33.20;70.30
40638;DHT22;26336;44.696;10.622;2023-08-24T11:35:18;33.30;72.20
40638;DHT22;26336;44.696;10.622;2023-08-24T11:38:22;33.20;71.30
40638;DHT22;26336;44.696;10.622;2023-08-24T11:41:27;33.20;70.30
40638;DHT22;26336;44.696;10.622;2023-08-24T11:44:49;33.40;70.10
40638;DHT22;26336;44.696;10.622;2023-08-24T11:47:55;33.60;71.10
40638;DHT22;26336;44.696;10.622;2023-08-24T11:50:59;33.60;72.00
40638;DHT22;26336;44.696;10.622;2023-08-24T11:54:03;33.60;72.00
40638;DHT22;26336;44.696;10.622;2023-08-24T11:57:08;33.70;69.60
40638;DHT22;26336;44.696;10.622;2023-08-24T12:00:13;33.80;70.30
40638;DHT22;26336;44.696;10.622;2023-08-24T12:03:18;33.70;70.60
40638;DHT22;26336;44.696;10.622;2023-08-24T12:06:26;33.80;70.40
40638;DHT22;26336;44.696;10.622;2023-08-24T12:09:32;33.90;70.10
40638;DHT22;26336;44.696;10.622;2023-08-24T12:12:38;33.90;68.50
40638;DHT22;26336;44.696;10.622;2023-08-24T12:15:43;34.10;66.80
40638;DHT22;26336;44.696;10.622;2023-08-24T12:18:53;34.30;67.70
40638;DHT22;26336;44.696;10.622;2023-08-24T12:21:58;34.40;69.30
40638;DHT22;26336;44.696;10.622;2023-08-24T12:25:05;34.30;70.20
40638;DHT22;26336;44.696;10.622;2023-08-24T12:28:10;34.30;69.00
40638;DHT22;26336;44.696;10.622;2023-08-24T12:31:17;34.30;69.90
40638;DHT22;26336;44.696;10.622;2023-08-24T12:34:21;34.30;69.90
40638;DHT22;26336;44.696;10.622;2023-08-24T12:37:27;34.20;69.00
40638;DHT22;26336;44.696;10.622;2023-08-24T12:40:32;34.40;69.00
40638;DHT22;26336;44.696;10.622;2023-08-24T12:43:37;34.50;68.90
40638;DHT22;26336;44.696;10.622;2023-08-24T12:46:41;34.30;69.50
40638;DHT22;26336;44.696;10.622;2023-08-24T12:49:46;34.20;67.00
40638;DHT22;26336;44.696;10.622;2023-08-24T12:52:50;34.30;68.70
40638;DHT22;26336;44.696;10.622;2023-08-24T12:55:59;34.40;68.40
40638;DHT22;26336;44.696;10.622;2023-08-24T12:59:03;34.30;68.80
40638;DHT22;26336;44.696;10.622;2023-08-24T13:02:08;34.30;69.10
40638;DHT22;26336;44.696;10.622;2023-08-24T13:05:13;34.30;69.00
40638;DHT22;26336;44.696;10.622;2023-08-24T13:08:18;34.50;67.50
40638;DHT22;26336;44.696;10.622;2023-08-24T13:11:22;34.60;67.70
40638;DHT22;26336;44.696;10.622;2023-08-24T13:14:26;34.60;67.10
40638;DHT22;26336;44.696;10.622;2023-08-24T13:17:30;34.60;66.70
40638;DHT22;26336;44.696;10.622;2023-08-24T13:20:34;34.40;66.10
40638;DHT22;26336;44.696;10.622;2023-08-24T13:23:39;34.50;67.90
40638;DHT22;26336;44.696;10.622;2023-08-24T13:26:42;34.60;67.20
40638;DHT22;26336;44.696;10.622;2023-08-24T13:29:46;34.70;66.00
40638;DHT22;26336;44.696;10.622;2023-08-24T13:32:53;34.80;65.80
40638;DHT22;26336;44.696;10.622;2023-08-24T13:35:58;34.80;66.60
40638;DHT22;26336;44.696;10.622;2023-08-24T13:39:05;34.80;66.00
40638;DHT22;26336;44.696;10.622;2023-08-24T13:42:09;34.80;66.80
40638;DHT22;26336;44.696;10.622;2023-08-24T13:45:13;34.80;66.30
40638;DHT22;26336;44.696;10.622;2023-08-24T13:48:17;34.90;66.30
40638;DHT22;26336;44.696;10.622;2023-08-24T13:51:21;34.80;66.20
40638;DHT22;26336;44.696;10.622;2023-08-24T13:54:24;34.90;66.20
40638;DHT22;26336;44.696;10.622;2023-08-24T13:57:30;34.90;66.30
40638;DHT22;26336;44.696;10.622;2023-08-24T14:00:34;34.80;66.20
40638;DHT22;26336;44.696;10.622;2023-08-24T14:03:39;34.80;67.50
40638;DHT22;26336;44.696;10.622;2023-08-24T14:06:44;34.80;67.20
40638;DHT22;26336;44.696;10.622;2023-08-24T14:09:48;34.80;65.90
40638;DHT22;26336;44.696;10.622;2023-08-24T14:12:52;35.00;66.90
40638;DHT22;26336;44.696;10.622;2023-08-24T14:15:59;34.90;66.30
40638;DHT22;26336;44.696;10.622;2023-08-24T14:19:03;34.90;67.50
40638;DHT22;26336;44.696;10.622;2023-08-24T14:22:08;35.10;66.80
40638;DHT22;26336;44.696;10.622;2023-08-24T14:25:18;35.20;66.90
40638;DHT22;26336;44.696;10.622;2023-08-24T14:28:22;35.10;66.90
40638;DHT22;26336;44.696;10.622;2023-08-24T14:31:30;35.10;66.50
40638;DHT22;26336;44.696;10.622;2023-08-24T14:34:39;35.10;67.00
40638;DHT22;26336;44.696;10.622;2023-08-24T14:37:47;34.90;67.80
40638;DHT22;26336;44.696;10.622;2023-08-24T14:40:51;34.70;66.70
40638;DHT22;26336;44.696;10.622;2023-08-24T14:43:55;34.80;66.60
40638;DHT22;26336;44.696;10.622;2023-08-24T14:46:59;34.90;67.30
40638;DHT22;26336;44.696;10.622;2023-08-24T14:50:03;34.90;66.90
40638;DHT22;26336;44.696;10.622;2023-08-24T14:53:07;34.90;66.30
40638;DHT22;26336;44.696;10.622;2023-08-24T14:56:12;34.80;66.90
40638;DHT22;26336;44.696;10.622;2023-08-24T14:59:16;35.00;66.20
40638;DHT22;26336;44.696;10.622;2023-08-24T15:02:22;35.10;66.70
40638;DHT22;26336;44.696;10.622;2023-08-24T15:05:25;35.10;66.90
40638;DHT22;26336;44.696;10.622;2023-08-24T15:08:33;34.90;66.70
40638;DHT22;26336;44.696;10.622;2023-08-24T15:11:39;35.00;65.60
40638;DHT22;26336;44.696;10.622;2023-08-24T15:15:00;35.00;66.30
40638;DHT22;26336;44.696;10.622;2023-08-24T15:18:06;35.10;65.70
40638;DHT22;26336;44.696;10.622;2023-08-24T15:21:11;35.20;65.10
40638;DHT22;26336;44.696;10.622;2023-08-24T15:24:20;35.20;65.50
40638;DHT22;26336;44.696;10.622;2023-08-24T15:27:25;35.30;65.00
40638;DHT22;26336;44.696;10.622;2023-08-24T15:30:29;35.30;65.00
40638;DHT22;26336;44.696;10.622;2023-08-24T15:33:33;35.10;65.70
40638;DHT22;26336;44.696;10.622;2023-08-24T15:36:38;35.20;65.00
40638;DHT22;26336;44.696;10.622;2023-08-24T15:39:43;35.10;65.70
40638;DHT22;26336;44.696;10.622;2023-08-24T15:42:47;35.00;65.30
40638;DHT22;26336;44.696;10.622;2023-08-24T15:45:51;35.20;64.90
40638;DHT22;26336;44.696;10.622;2023-08-24T15:48:56;35.10;65.00
40638;DHT22;26336;44.696;10.622;2023-08-24T15:52:03;35.10;65.30
40638;DHT22;26336;44.696;10.622;2023-08-24T15:55:07;35.00;65.70
40638;DHT22;26336;44.696;10.622;2023-08-24T15:58:11;35.10;64.80
40638;DHT22;26336;44.696;10.622;2023-08-24T16:01:16;35.20;64.50
40638;DHT22;26336;44.696;10.622;2023-08-24T16:04:23;35.20;64.90
40638;DHT22;26336;44.696;10.622;2023-08-24T16:07:27;35.20;64.90
40638;DHT22;26336;44.696;10.622;2023-08-24T16:10:31;35.10;65.80
40638;DHT22;26336;44.696;10.622;2023-08-24T16:13:38;35.10;65.80
40638;DHT22;26336;44.696;10.622;2023-08-24T16:16:42;35.00;66.40
40638;DHT22;26336;44.696;10.622;2023-08-24T16:19:47;35.10;65.90
40638;DHT22;26336;44.696;10.622;2023-08-24T16:22:51;35.10;66.30
40638;DHT22;26336;44.696;10.622;2023-08-24T16:25:58;35.00;66.80
40638;DHT22;26336;44.696;10.622;2023-08-24T16:29:07;34.90;67.80
40638;DHT22;26336;44.696;10.622;2023-08-24T16:32:11;35.00;67.00
40638;DHT22;26336;44.696;10.622;2023-08-24T16:35:18;35.00;67.20
40638;DHT22;26336;44.696;10.622;2023-08-24T16:38:21;35.10;67.10
40638;DHT22;26336;44.696;10.622;2023-08-24T16:41:25;35.10;67.30
40638;DHT22;26336;44.696;10.622;2023-08-24T16:44:37;35.00;67.60
40638;DHT22;26336;44.696;10.622;2023-08-24T16:47:44;34.90;68.20
40638;DHT22;26336;44.696;10.622;2023-08-24T16:50:52;34.80;68.20
40638;DHT22;26336;44.696;10.622;2023-08-24T16:53:57;34.70;67.80
40638;DHT22;26336;44.696;10.622;2023-08-24T16:57:01;34.60;68.40
40638;DHT22;26336;44.696;10.622;2023-08-24T17:00:08;34.60;68.10
40638;DHT22;26336;44.696;10.622;2023-08-24T17:03:13;34.70;68.00
40638;DHT22;26336;44.696;10.622;2023-08-24T17:06:17;34.60;68.00
40638;DHT22;26336;44.696;10.622;2023-08-24T17:09:21;34.60;68.20
40638;DHT22;26336;44.696;10.622;2023-08-24T17:12:25;34.70;68.40
40638;DHT22;26336;44.696;10.622;2023-08-24T17:15:29;34.70;68.70
40638;DHT22;26336;44.696;10.622;2023-08-24T17:18:33;34.60;69.10
40638;DHT22;26336;44.696;10.622;2023-08-24T17:21:43;34.60;69.30
40638;DHT22;26336;44.696;10.622;2023-08-24T17:24:47;34.60;69.30
40638;DHT22;26336;44.696;10.622;2023-08-24T17:27:51;34.50;69.90
40638;DHT22;26336;44.696;10.622;2023-08-24T17:30:55;34.30;70.20
40638;DHT22;26336;44.696;10.622;2023-08-24T17:34:00;34.20;70.60
40638;DHT22;26336;44.696;10.622;2023-08-24T17:37:07;34.10;71.80
40638;DHT22;26336;44.696;10.622;2023-08-24T17:40:11;34.00;72.00
40638;DHT22;26336;44.696;10.622;2023-08-24T17:43:19;33.90;71.70
40638;DHT22;26336;44.696;10.622;2023-08-24T17:46:35;33.70;72.40
40638;DHT22;26336;44.696;10.622;2023-08-24T17:49:39;33.50;73.50
40638;DHT22;26336;44.696;10.622;2023-08-24T17:52:49;33.30;73.70
40638;DHT22;26336;44.696;10.622;2023-08-24T17:55:54;33.20;74.30
40638;DHT22;26336;44.696;10.622;2023-08-24T17:58:58;33.10;75.10
40638;DHT22;26336;44.696;10.622;2023-08-24T18:02:02;33.10;75.30
40638;DHT22;26336;44.696;10.622;2023-08-24T18:05:07;33.10;76.40
40638;DHT22;26336;44.696;10.622;2023-08-24T18:08:14;33.00;76.40
40638;DHT22;26336;44.696;10.622;2023-08-24T18:11:31;33.00;76.90
40638;DHT22;26336;44.696;10.622;2023-08-24T18:14:40;32.90;76.90
40638;DHT22;26336;44.696;10.622;2023-08-24T18:17:45;32.90;76.90
40638;DHT22;26336;44.696;10.622;2023-08-24T18:20:49;32.80;77.10
40638;DHT22;26336;44.696;10.622;2023-08-24T18:23:53;32.80;77.20
40638;DHT22;26336;44.696;10.622;2023-08-24T18:26:59;32.80;78.10
40638;DHT22;26336;44.696;10.622;2023-08-24T18:30:04;32.70;78.30
40638;DHT22;26336;44.696;10.622;2023-08-24T18:33:12;32.70;78.90
40638;DHT22;26336;44.696;10.622;2023-08-24T18:36:19;32.70;78.60
40638;DHT22;26336;44.696;10.622;2023-08-24T18:39:39;32.70;78.80
40638;DHT22;26336;44.696;10.622;2023-08-24T18:42:53;32.70;78.80
40638;DHT22;26336;44.696;10.622;2023-08-24T18:45:58;32.70;78.50
40638;DHT22;26336;44.696;10.622;2023-08-24T18:49:03;32.70;78.70
40638;DHT22;26336;44.696;10.622;2023-08-24T18:52:11;32.70;78.50
40638;DHT22;26336;44.696;10.622;2023-08-24T18:55:16;32.70;78.10
40638;DHT22;26336;44.696;10.622;2023-08-24T18:58:22;32.70;77.80
40638;DHT22;26336;44.696;10.622;2023-08-24T19:01:26;32.70;77.60
40638;DHT22;26336;44.696;10.622;2023-08-24T19:04:31;32.70;77.80
40638;DHT22;26336;44.696;10.622;2023-08-24T19:07:36;32.70;77.70
40638;DHT22;26336;44.696;10.622;2023-08-24T19:10:41;32.70;77.80
40638;DHT22;26336;44.696;10.622;2023-08-24T19:13:45;32.70;78.00
40638;DHT22;26336;44.696;10.622;2023-08-24T19:16:49;32.70;78.20
40638;DHT22;26336;44.696;10.622;2023-08-24T19:19:54;32.70;78.30